createdAt,value
2023-03-13T00:01:51.404Z,2.17
2023-03-13T00:04:20.206Z,2.20
2023-03-13T00:06:48.673Z,2.40
2023-03-13T00:09:18.592Z,3.47
2023-03-13T00:11:48.140Z,2.30
2023-03-13T00:14:16.572Z,2.80
2023-03-13T00:16:45.056Z,2.60
2023-03-13T00:19:13.546Z,2.27
2023-03-13T00:21:42.585Z,2.40
2023-03-13T00:24:13.246Z,2.83
2023-03-13T00:26:41.644Z,2.80
2023-03-13T00:29:10.061Z,2.40
2023-03-13T00:31:39.177Z,2.20
2023-03-13T00:34:07.602Z,2.60
2023-03-13T00:36:37.297Z,2.50
2023-03-13T00:39:08.223Z,2.20
2023-03-13T00:41:38.338Z,2.70
2023-03-13T00:44:07.203Z,3.23
2023-03-13T00:46:35.726Z,2.60
2023-03-13T00:49:05.016Z,2.77
2023-03-13T00:51:33.409Z,2.03
2023-03-13T00:54:02.476Z,2.83
2023-03-13T00:56:31.187Z,2.80
2023-03-13T00:59:02.680Z,2.40
2023-03-13T01:01:34.430Z,3.40
2023-03-13T01:04:13.728Z,2.40
2023-03-13T01:06:43.746Z,2.70
2023-03-13T01:09:15.280Z,2.43
2023-03-13T01:11:44.965Z,2.63
2023-03-13T01:14:19.298Z,2.40
2023-03-13T01:16:48.016Z,2.40
2023-03-13T01:19:18.002Z,2.53
2023-03-13T01:21:47.212Z,2.30
2023-03-13T01:24:16.268Z,2.00
2023-03-13T01:26:44.837Z,2.37
2023-03-13T01:29:13.271Z,3.13
2023-03-13T01:31:41.728Z,2.60
2023-03-13T01:34:11.705Z,2.63
2023-03-13T01:36:40.318Z,2.63
2023-03-13T01:39:08.830Z,2.70
2023-03-13T01:41:38.490Z,2.30
2023-03-13T01:44:07.023Z,2.17
2023-03-13T01:46:35.468Z,2.20
2023-03-13T01:49:17.149Z,2.30
2023-03-13T01:52:05.349Z,2.73
2023-03-13T01:54:39.856Z,2.43
2023-03-13T01:57:17.660Z,2.50
2023-03-13T01:59:54.795Z,2.60
2023-03-13T02:02:24.583Z,2.60
2023-03-13T02:04:58.864Z,2.90
2023-03-13T02:07:42.613Z,2.03
2023-03-13T02:10:14.344Z,2.70
2023-03-13T02:12:43.180Z,2.27
2023-03-13T02:15:23.500Z,2.40
2023-03-13T02:17:52.688Z,2.90
2023-03-13T02:20:23.180Z,4.23
2023-03-13T02:23:13.231Z,2.70
2023-03-13T02:25:47.414Z,2.47
2023-03-13T02:28:21.509Z,2.47
2023-03-13T02:30:52.894Z,2.50
2023-03-13T02:33:22.351Z,2.43
2023-03-13T02:35:51.298Z,1.63
2023-03-13T02:38:25.170Z,1.47
2023-03-13T02:40:55.570Z,2.40
2023-03-13T02:43:32.353Z,2.10
2023-03-13T02:46:09.000Z,2.00
2023-03-13T02:48:45.738Z,1.90
2023-03-13T02:51:45.880Z,2.87
2023-03-13T02:54:36.821Z,2.10
2023-03-13T02:57:06.731Z,2.23
2023-03-13T02:59:36.405Z,2.00
2023-03-13T03:02:06.053Z,2.67
2023-03-13T03:04:34.494Z,2.47
2023-03-13T03:07:02.953Z,2.57
2023-03-13T03:09:31.963Z,4.03
2023-03-13T03:12:00.430Z,4.47
2023-03-13T03:14:28.983Z,3.20
2023-03-13T03:16:57.372Z,2.97
2023-03-13T03:19:26.023Z,3.07
2023-03-13T03:21:54.528Z,2.50
2023-03-13T03:24:22.997Z,2.93
2023-03-13T03:26:51.383Z,2.30
2023-03-13T03:29:19.971Z,1.87
2023-03-13T03:31:48.446Z,2.50
2023-03-13T03:34:17.148Z,2.47
2023-03-13T03:36:45.618Z,1.90
2023-03-13T03:39:14.223Z,2.90
2023-03-13T03:41:42.647Z,2.70
2023-03-13T03:44:11.111Z,3.20
2023-03-13T03:46:39.549Z,3.70
2023-03-13T03:49:08.056Z,2.97
2023-03-13T03:51:36.479Z,2.83
2023-03-13T03:54:05.556Z,3.00
2023-03-13T03:56:33.975Z,3.20
2023-03-13T03:59:02.460Z,2.77
2023-03-13T04:01:30.842Z,3.13
2023-03-13T04:03:59.215Z,2.90
2023-03-13T04:06:27.697Z,2.37
2023-03-13T04:08:56.871Z,3.50
2023-03-13T04:11:25.343Z,2.73
2023-03-13T04:13:53.779Z,2.83
2023-03-13T04:16:22.269Z,3.17
2023-03-13T04:18:50.719Z,3.27
2023-03-13T04:21:19.282Z,2.33
2023-03-13T04:23:48.145Z,2.80
2023-03-13T04:26:16.523Z,2.47
2023-03-13T04:28:45.213Z,2.77
2023-03-13T04:31:13.661Z,3.30
2023-03-13T04:33:42.284Z,3.80
2023-03-13T04:36:11.296Z,2.80
2023-03-13T04:38:39.751Z,3.03
2023-03-13T04:41:08.172Z,3.20
2023-03-13T04:43:36.623Z,2.83
2023-03-13T04:46:05.146Z,3.10
2023-03-13T04:48:33.726Z,3.10
2023-03-13T04:51:02.166Z,2.40
2023-03-13T04:53:30.570Z,2.80
2023-03-13T04:55:58.977Z,2.93
2023-03-13T04:58:27.461Z,2.90
2023-03-13T05:00:57.469Z,3.00
2023-03-13T05:03:25.961Z,3.10
2023-03-13T05:05:54.385Z,2.90
2023-03-13T05:08:22.843Z,2.87
2023-03-13T05:10:51.230Z,3.40
2023-03-13T05:13:19.837Z,2.77
2023-03-13T05:15:48.252Z,3.37
2023-03-13T05:18:16.785Z,2.97
2023-03-13T05:20:45.202Z,3.00
2023-03-13T05:23:13.651Z,2.93
2023-03-13T05:25:42.563Z,3.23
2023-03-13T05:28:11.035Z,3.53
2023-03-13T05:30:40.097Z,3.20
2023-03-13T05:33:08.493Z,5.20
2023-03-13T05:35:39.445Z,3.80
2023-03-13T05:38:08.807Z,4.13
2023-03-13T05:40:37.243Z,4.10
2023-03-13T05:43:05.790Z,4.40
2023-03-13T05:45:34.372Z,4.10
2023-03-13T05:48:02.992Z,4.13
2023-03-13T05:50:31.507Z,3.50
2023-03-13T05:52:59.955Z,3.90
2023-03-13T05:55:28.470Z,4.53
2023-03-13T05:57:57.086Z,3.40
2023-03-13T06:00:25.663Z,3.13
2023-03-13T06:02:54.046Z,3.10
2023-03-13T06:05:22.486Z,3.00
2023-03-13T06:07:51.759Z,3.00
2023-03-13T06:10:20.223Z,2.67
2023-03-13T06:12:55.316Z,2.40
2023-03-13T06:15:24.663Z,2.20
2023-03-13T06:17:53.114Z,2.50
2023-03-13T06:20:21.691Z,2.43
2023-03-13T06:22:50.324Z,2.60
2023-03-13T06:25:18.836Z,2.50
2023-03-13T06:27:47.256Z,2.53
2023-03-13T06:30:15.823Z,2.40
2023-03-13T06:32:44.360Z,2.20
2023-03-13T06:35:12.842Z,2.23
2023-03-13T06:37:41.219Z,2.17
2023-03-13T06:40:10.537Z,2.03
2023-03-13T06:42:39.409Z,2.30
2023-03-13T06:45:08.456Z,2.70
2023-03-13T06:47:37.103Z,2.00
2023-03-13T06:50:05.736Z,2.00
2023-03-13T06:52:43.046Z,2.03
2023-03-13T06:55:12.796Z,2.03
2023-03-13T06:57:41.652Z,1.77
2023-03-13T07:00:12.639Z,2.20
2023-03-13T07:02:41.012Z,2.10
2023-03-13T07:05:10.037Z,2.20
2023-03-13T07:07:38.634Z,2.00
2023-03-13T07:10:07.481Z,1.90
2023-03-13T07:12:39.618Z,2.13
2023-03-13T07:15:08.635Z,2.07
2023-03-13T07:17:37.141Z,2.20
2023-03-13T07:20:08.055Z,2.43
2023-03-13T07:22:36.539Z,2.00
2023-03-13T07:25:06.306Z,2.20
2023-03-13T07:27:35.005Z,3.30
2023-03-13T07:30:03.498Z,2.50
2023-03-13T07:32:35.059Z,2.00
2023-03-13T07:35:05.768Z,2.30
2023-03-13T07:37:34.177Z,2.20
2023-03-13T07:40:02.626Z,2.70
2023-03-13T07:42:31.043Z,1.90
2023-03-13T07:44:59.430Z,2.50
2023-03-13T07:47:27.884Z,1.70
2023-03-13T07:49:56.373Z,2.30
2023-03-13T07:52:25.063Z,2.17
2023-03-13T07:54:53.494Z,1.90
2023-03-13T07:57:22.304Z,1.93
2023-03-13T07:59:50.704Z,2.40
2023-03-13T08:02:19.431Z,2.27
2023-03-13T08:04:47.926Z,2.30
2023-03-13T08:07:16.307Z,2.60
2023-03-13T08:09:44.736Z,2.10
2023-03-13T08:12:13.208Z,2.23
2023-03-13T08:14:42.195Z,3.90
2023-03-13T08:17:10.643Z,2.90
2023-03-13T08:19:39.339Z,3.70
2023-03-13T08:22:07.795Z,3.17
2023-03-13T08:24:36.205Z,2.33
2023-03-13T08:27:04.679Z,2.50
2023-03-13T08:29:33.113Z,2.37
2023-03-13T08:32:01.644Z,2.60
2023-03-13T08:34:30.034Z,2.43
2023-03-13T08:36:58.998Z,2.83
2023-03-13T08:39:27.426Z,2.90
2023-03-13T08:41:55.891Z,2.97
2023-03-13T08:44:24.355Z,2.43
2023-03-13T08:46:53.256Z,2.70
2023-03-13T08:49:21.697Z,2.93
2023-03-13T08:51:50.088Z,4.20
2023-03-13T08:54:18.516Z,3.80
2023-03-13T08:56:47.479Z,3.10
2023-03-13T08:59:19.035Z,3.30
2023-03-13T09:01:47.401Z,5.00
2023-03-13T09:04:16.077Z,4.00
2023-03-13T09:06:44.600Z,3.43
2023-03-13T09:09:15.096Z,3.10
2023-03-13T09:11:43.497Z,3.10
2023-03-13T09:14:12.887Z,2.60
2023-03-13T09:16:41.412Z,2.23
2023-03-13T09:19:10.215Z,2.40
2023-03-13T09:21:38.635Z,2.77
2023-03-13T09:24:07.605Z,3.77
2023-03-13T09:26:36.081Z,3.10
2023-03-13T09:29:04.666Z,3.70
2023-03-13T09:31:34.450Z,5.77
2023-03-13T09:34:03.262Z,6.37
2023-03-13T09:36:31.916Z,4.33
2023-03-13T09:39:01.352Z,4.70
2023-03-13T09:41:51.550Z,3.47
2023-03-13T09:44:32.970Z,2.90
2023-03-13T09:47:05.827Z,4.30
2023-03-13T09:49:49.632Z,4.57
2023-03-13T09:52:18.025Z,4.77
2023-03-13T09:54:49.300Z,3.00
2023-03-13T09:57:32.893Z,4.10
2023-03-13T10:00:17.581Z,3.77
2023-03-13T10:02:49.312Z,3.60
2023-03-13T10:05:29.714Z,4.23
2023-03-13T10:08:25.512Z,3.10
2023-03-13T10:11:04.712Z,3.93
2023-03-13T10:13:37.773Z,3.97
2023-03-13T10:16:36.066Z,4.50
2023-03-13T10:19:17.453Z,4.13
2023-03-13T10:21:51.534Z,5.13
2023-03-13T10:24:47.705Z,5.20
2023-03-13T10:27:17.161Z,4.90
2023-03-13T10:29:45.624Z,5.80
2023-03-13T10:32:18.046Z,5.10
2023-03-13T10:35:04.163Z,4.80
2023-03-13T10:37:42.385Z,5.43
2023-03-13T10:40:25.622Z,4.10
2023-03-13T10:43:01.910Z,5.50
2023-03-13T10:45:35.916Z,5.70
2023-03-13T10:48:15.907Z,4.10
2023-03-13T10:50:47.864Z,3.53
2023-03-13T10:53:25.315Z,4.00
2023-03-13T10:56:11.269Z,4.40
2023-03-13T10:58:45.971Z,3.03
2023-03-13T11:01:32.607Z,3.33
2023-03-13T11:04:19.708Z,3.00
2023-03-13T11:07:05.394Z,2.70
2023-03-13T11:09:34.247Z,2.30
2023-03-13T11:12:13.038Z,2.77
2023-03-13T11:14:43.541Z,2.63
2023-03-13T11:17:26.426Z,2.67
2023-03-13T11:19:59.584Z,2.50
2023-03-13T11:22:52.076Z,2.70
2023-03-13T11:26:05.617Z,3.20
2023-03-13T11:28:37.266Z,2.90
2023-03-13T11:31:25.944Z,3.50
2023-03-13T11:34:28.613Z,2.50
2023-03-13T11:37:10.968Z,6.50
2023-03-13T11:39:48.487Z,3.20
2023-03-13T11:42:54.692Z,3.60
2023-03-13T11:45:49.872Z,6.27
2023-03-13T11:48:36.951Z,7.97
2023-03-13T11:51:30.209Z,18.37
2023-03-13T11:54:10.330Z,13.93
2023-03-13T11:56:57.518Z,3.83
2023-03-13T11:59:55.285Z,3.90
2023-03-13T12:02:33.726Z,28.47
2023-03-13T12:05:08.451Z,20.30
2023-03-13T12:07:46.425Z,4.17
2023-03-13T12:10:23.171Z,3.37
2023-03-13T12:13:13.251Z,3.63
2023-03-13T12:16:11.462Z,3.87
2023-03-13T12:18:42.525Z,4.63
2023-03-13T12:21:14.400Z,4.90
2023-03-13T12:24:07.453Z,5.60
2023-03-13T12:26:57.559Z,5.20
2023-03-13T12:29:47.358Z,3.50
2023-03-13T12:32:40.201Z,5.00
2023-03-13T12:35:23.790Z,5.03
2023-03-13T12:38:04.496Z,3.57
2023-03-13T12:40:57.322Z,4.43
2023-03-13T12:43:32.802Z,5.00
2023-03-13T12:46:01.719Z,5.20
2023-03-13T12:48:51.423Z,5.10
2023-03-13T12:51:25.906Z,4.07
2023-03-13T12:54:09.751Z,5.10
2023-03-13T12:56:47.626Z,4.37
2023-03-13T12:59:22.390Z,3.30
2023-03-13T13:01:55.072Z,3.50
2023-03-13T13:04:34.135Z,2.20
2023-03-13T13:07:06.777Z,1.90
2023-03-13T13:09:40.533Z,1.60
2023-03-13T13:12:24.530Z,1.50
2023-03-13T13:14:53.297Z,2.40
2023-03-13T13:17:28.213Z,1.53
2023-03-13T13:19:57.475Z,2.30
2023-03-13T13:22:38.830Z,1.80
2023-03-13T13:25:19.687Z,1.60
2023-03-13T13:27:52.846Z,1.70
2023-03-13T13:30:21.245Z,1.63
2023-03-13T13:32:57.204Z,1.20
2023-03-13T13:35:34.469Z,1.70
2023-03-13T13:38:21.146Z,1.20
2023-03-13T13:41:27.292Z,1.50
2023-03-13T13:44:28.467Z,1.43
2023-03-13T13:46:59.513Z,1.77
2023-03-13T13:49:33.845Z,1.33
2023-03-13T13:52:05.972Z,2.00
2023-03-13T13:54:46.634Z,1.63
2023-03-13T13:57:37.953Z,2.00
2023-03-13T14:00:26.054Z,2.63
2023-03-13T14:02:56.330Z,2.10
2023-03-13T14:05:30.947Z,2.07
2023-03-13T14:07:59.356Z,1.80
2023-03-13T14:10:50.711Z,2.20
2023-03-13T14:13:21.754Z,2.57
2023-03-13T14:15:53.729Z,2.17
2023-03-13T14:18:25.223Z,2.03
2023-03-13T14:21:02.677Z,2.80
2023-03-13T14:23:35.748Z,2.10
2023-03-13T14:26:23.907Z,2.50
2023-03-13T14:29:00.476Z,2.07
2023-03-13T14:31:33.715Z,2.63
2023-03-13T14:34:24.697Z,1.70
2023-03-13T14:37:14.925Z,1.90
2023-03-13T14:39:49.561Z,1.80
2023-03-13T14:42:19.809Z,2.07
2023-03-13T14:44:50.942Z,2.00
2023-03-13T14:47:32.636Z,1.90
2023-03-13T14:50:10.927Z,2.10
2023-03-13T14:52:42.378Z,2.43
2023-03-13T14:55:25.342Z,2.80
2023-03-13T14:58:01.443Z,1.73
2023-03-13T15:00:36.456Z,2.20
2023-03-13T15:03:22.294Z,1.97
2023-03-13T15:06:15.990Z,2.63
2023-03-13T15:08:47.272Z,10.47
2023-03-13T15:11:27.340Z,11.40
2023-03-13T15:13:56.708Z,9.50
2023-03-13T15:16:26.621Z,6.57
2023-03-13T15:18:55.938Z,9.30
2023-03-13T15:21:27.696Z,11.60
2023-03-13T15:24:18.648Z,7.30
2023-03-13T15:26:48.997Z,6.20
2023-03-13T15:29:19.097Z,4.57
2023-03-13T15:31:47.664Z,2.37
2023-03-13T15:34:17.333Z,2.70
2023-03-13T15:36:45.757Z,4.17
2023-03-13T15:39:23.336Z,3.20
2023-03-13T15:41:52.257Z,2.00
2023-03-13T15:44:20.934Z,1.60
2023-03-13T15:46:49.502Z,1.70
2023-03-13T15:49:17.891Z,1.67
2023-03-13T15:51:46.343Z,1.30
2023-03-13T15:54:15.186Z,1.07
2023-03-13T15:56:43.826Z,1.40
2023-03-13T15:59:17.304Z,1.30
2023-03-13T16:01:49.933Z,2.13
2023-03-13T16:04:18.449Z,1.17
2023-03-13T16:06:47.376Z,1.20
2023-03-13T16:09:18.200Z,1.17
2023-03-13T16:11:46.737Z,1.37
2023-03-13T16:14:15.334Z,1.43
2023-03-13T16:16:43.790Z,1.40
2023-03-13T16:19:12.522Z,1.90
2023-03-13T16:21:43.908Z,1.33
2023-03-13T16:24:12.387Z,1.60
2023-03-13T16:26:41.237Z,1.70
2023-03-13T16:29:16.509Z,1.57
2023-03-13T16:31:45.144Z,1.67
2023-03-13T16:34:13.533Z,1.70
2023-03-13T16:36:42.007Z,1.40
2023-03-13T16:39:21.056Z,1.50
2023-03-13T16:41:50.134Z,1.33
2023-03-13T16:44:18.550Z,2.20
2023-03-13T16:47:02.792Z,1.67
2023-03-13T16:49:33.056Z,1.27
2023-03-13T16:52:01.493Z,1.40
2023-03-13T16:54:29.888Z,1.70
2023-03-13T16:57:00.018Z,1.80
2023-03-13T16:59:29.490Z,1.57
2023-03-13T17:01:57.898Z,1.80
2023-03-13T17:04:26.465Z,2.43
2023-03-13T17:06:55.402Z,1.90
2023-03-13T17:09:23.816Z,2.10
2023-03-13T17:11:52.794Z,2.10
2023-03-13T17:14:21.197Z,1.90
2023-03-13T17:16:49.668Z,2.27
2023-03-13T17:19:19.063Z,2.03
2023-03-13T17:21:47.649Z,2.90
2023-03-13T17:24:16.040Z,2.40
2023-03-13T17:26:44.580Z,2.20
2023-03-13T17:29:19.919Z,2.13
2023-03-13T17:31:48.334Z,2.50
2023-03-13T17:34:17.613Z,2.67
2023-03-13T17:36:47.630Z,2.40
2023-03-13T17:39:16.674Z,2.73
2023-03-13T17:41:45.100Z,2.70
2023-03-13T17:44:13.764Z,2.43
2023-03-13T17:46:45.715Z,3.50
2023-03-13T17:49:15.757Z,2.70
2023-03-13T17:51:47.093Z,3.87
2023-03-13T17:54:16.101Z,3.40
2023-03-13T17:56:45.805Z,3.63
2023-03-13T17:59:18.185Z,2.80
2023-03-13T18:01:46.952Z,4.30
2023-03-13T18:04:15.523Z,4.50
2023-03-13T18:06:49.556Z,4.10
2023-03-13T18:09:20.645Z,4.50
2023-03-13T18:11:50.705Z,3.90
2023-03-13T18:14:19.134Z,4.00
2023-03-13T18:16:50.890Z,4.50
2023-03-13T18:19:22.699Z,4.20
2023-03-13T18:21:56.482Z,3.60
2023-03-13T18:24:24.950Z,4.53
2023-03-13T18:26:54.016Z,3.77
2023-03-13T18:29:27.175Z,4.77
2023-03-13T18:31:57.997Z,3.87
2023-03-13T18:34:27.186Z,3.77
2023-03-13T18:36:56.387Z,3.00
2023-03-13T18:39:24.797Z,3.83
2023-03-13T18:41:53.583Z,3.87
2023-03-13T18:44:22.022Z,4.00
2023-03-13T18:46:52.072Z,2.60
2023-03-13T18:49:25.559Z,3.17
2023-03-13T18:51:54.875Z,3.40
2023-03-13T18:54:23.268Z,3.13
2023-03-13T18:56:51.725Z,2.93
2023-03-13T18:59:22.678Z,2.80
2023-03-13T19:01:51.949Z,1.03
2023-03-13T19:04:20.831Z,1.47
2023-03-13T19:06:49.647Z,1.40
2023-03-13T19:09:42.103Z,1.00
2023-03-13T19:12:11.181Z,0.83
2023-03-13T19:14:40.270Z,1.00
2023-03-13T19:17:20.656Z,1.17
2023-03-13T19:19:49.102Z,1.50
2023-03-13T19:22:17.770Z,1.10
2023-03-13T19:24:46.173Z,0.90
2023-03-13T19:27:16.039Z,0.90
2023-03-13T19:29:45.322Z,0.90
2023-03-13T19:32:18.628Z,1.00
2023-03-13T19:34:47.120Z,1.20
2023-03-13T19:37:17.716Z,1.50
2023-03-13T19:39:46.479Z,1.07
2023-03-13T19:42:14.856Z,1.57
2023-03-13T19:44:43.686Z,1.53
2023-03-13T19:47:16.538Z,1.27
2023-03-13T19:49:46.240Z,1.33
2023-03-13T19:52:14.618Z,1.97
2023-03-13T19:54:43.075Z,2.50
2023-03-13T19:57:12.563Z,1.97
2023-03-13T19:59:41.021Z,1.40
2023-03-13T20:02:12.373Z,1.63
2023-03-13T20:04:42.934Z,1.83
2023-03-13T20:07:11.956Z,1.60
2023-03-13T20:09:40.430Z,2.20
2023-03-13T20:12:08.954Z,2.00
2023-03-13T20:14:37.335Z,2.10
2023-03-13T20:17:06.252Z,2.70
2023-03-13T20:19:34.754Z,1.80
2023-03-13T20:22:05.960Z,2.87
2023-03-13T20:24:34.660Z,6.37
2023-03-13T20:27:03.737Z,1.97
2023-03-13T20:29:32.592Z,1.93
2023-03-13T20:32:02.706Z,4.00
2023-03-13T20:34:31.314Z,2.63
2023-03-13T20:37:00.811Z,2.57
2023-03-13T20:39:30.250Z,4.27
2023-03-13T20:42:02.618Z,2.83
2023-03-13T20:44:31.501Z,2.07
2023-03-13T20:46:59.900Z,0.90
2023-03-13T20:49:28.400Z,1.20
2023-03-13T20:51:56.959Z,1.30
2023-03-13T20:54:25.848Z,1.67
2023-03-13T20:56:54.518Z,2.80
2023-03-13T20:59:22.925Z,1.90
2023-03-13T21:01:51.387Z,2.67
2023-03-13T21:04:20.303Z,1.50
2023-03-13T21:06:50.759Z,6.23
2023-03-13T21:09:19.205Z,8.50
2023-03-13T21:11:47.804Z,2.47
2023-03-13T21:14:16.179Z,2.30
2023-03-13T21:16:44.592Z,4.63
2023-03-13T21:19:13.765Z,2.00
2023-03-13T21:21:42.536Z,3.40
2023-03-13T21:24:11.511Z,6.93
2023-03-13T21:26:39.900Z,6.00
2023-03-13T21:29:10.286Z,1.30
2023-03-13T21:31:39.480Z,1.73
2023-03-13T21:34:08.310Z,1.20
2023-03-13T21:36:37.003Z,1.40
2023-03-13T21:39:08.543Z,1.50
2023-03-13T21:41:37.246Z,1.30
2023-03-13T21:44:05.886Z,2.73
2023-03-13T21:46:34.355Z,1.20
2023-03-13T21:49:02.876Z,1.90
2023-03-13T21:51:31.305Z,8.20
2023-03-13T21:53:59.691Z,4.33
2023-03-13T21:56:28.186Z,3.33
2023-03-13T21:58:57.091Z,3.57
2023-03-13T22:01:25.752Z,3.80
2023-03-13T22:03:54.809Z,3.77
2023-03-13T22:06:23.579Z,2.80
2023-03-13T22:08:52.013Z,2.97
2023-03-13T22:11:20.592Z,3.63
2023-03-13T22:13:48.996Z,2.20
2023-03-13T22:16:17.390Z,4.10
2023-03-13T22:18:45.827Z,2.70
2023-03-13T22:21:15.909Z,3.20
2023-03-13T22:23:44.648Z,2.53
2023-03-13T22:26:14.677Z,5.40
2023-03-13T22:28:43.257Z,6.00
2023-03-13T22:31:12.999Z,2.87
2023-03-13T22:33:41.439Z,3.40
2023-03-13T22:36:10.730Z,2.63
2023-03-13T22:38:40.667Z,3.73
2023-03-13T22:41:13.573Z,4.70
2023-03-13T22:43:42.040Z,3.70
2023-03-13T22:46:12.101Z,1.83
2023-03-13T22:48:41.223Z,2.90
2023-03-13T22:51:15.526Z,2.23
2023-03-13T22:53:44.640Z,2.13
2023-03-13T22:56:13.827Z,3.00
2023-03-13T22:58:43.058Z,2.37
2023-03-13T23:01:15.239Z,1.83
2023-03-13T23:03:44.051Z,2.27
2023-03-13T23:06:20.968Z,1.80
2023-03-13T23:08:49.976Z,2.97
2023-03-13T23:11:19.271Z,2.90
2023-03-13T23:13:48.472Z,3.23
2023-03-13T23:16:16.928Z,2.27
2023-03-13T23:18:45.407Z,3.20
2023-03-13T23:21:15.532Z,2.07
2023-03-13T23:23:45.026Z,2.27
2023-03-13T23:26:16.369Z,2.50
2023-03-13T23:28:45.463Z,4.83
2023-03-13T23:31:19.501Z,3.07
2023-03-13T23:33:49.009Z,3.83
2023-03-13T23:36:19.472Z,3.33
2023-03-13T23:38:52.710Z,3.23
2023-03-13T23:41:22.298Z,3.30
2023-03-13T23:43:51.214Z,3.30
2023-03-13T23:46:24.348Z,2.13
2023-03-13T23:48:57.183Z,2.70
2023-03-13T23:51:26.376Z,2.60
2023-03-13T23:53:54.783Z,2.40
2023-03-13T23:56:25.397Z,2.80
2023-03-13T23:58:57.170Z,2.40
